Time;durP1;ratioP1;P1;durP2;ratioP2;P2;SDS_P1;SDS_P2;PMS_P1;PMS_P2;Temp;Humidity;BMP_temperature;BMP_pressure;BME280_temperature;BME280_humidity;BME280_pressure;Samples;Min_cycle;Max_cycle;Signal;HPM_P1;HPM_P2
2023/05/02 00:02:26;;;;;;;7.87;5.47;;;11.00;45.90;;;;;;5079200;28;20853;-67
2023/05/02 00:04:52;;;;;;;9.13;5.20;;;11.00;45.90;;;;;;5075267;28;20479;-67
2023/05/02 00:07:19;;;;;;;8.33;5.37;;;11.00;45.90;;;;;;5079774;28;20469;-66
2023/05/02 00:09:46;;;;;;;8.97;6.10;;;11.00;45.90;;;;;;5077998;28;20519;-68
2023/05/02 00:12:14;;;;;;;8.17;5.80;;;10.90;45.80;;;;;;5074720;28;20468;-66
2023/05/02 00:14:41;;;;;;;11.27;6.63;;;10.90;45.90;;;;;;5075883;28;20469;-67
2023/05/02 00:17:07;;;;;;;7.80;5.30;;;10.90;46.00;;;;;;5075768;28;21161;-67
2023/05/02 00:19:38;;;;;;;8.23;5.53;;;10.80;45.90;;;;;;5078620;28;20485;-67
2023/05/02 00:22:05;;;;;;;8.30;5.43;;;10.80;45.90;;;;;;5075672;28;20460;-67
2023/05/02 00:24:32;;;;;;;9.30;5.77;;;10.80;45.70;;;;;;5073851;28;21000;-68
2023/05/02 00:26:58;;;;;;;7.67;5.10;;;10.80;45.70;;;;;;5081339;28;20472;-67
2023/05/02 00:29:27;;;;;;;8.20;5.70;;;10.70;45.70;;;;;;5073097;28;20837;-66
2023/05/02 00:31:53;;;;;;;9.23;6.20;;;10.70;45.60;;;;;;5079187;28;20471;-68
2023/05/02 00:34:20;;;;;;;9.40;6.10;;;10.70;45.80;;;;;;5071119;28;20452;-67
2023/05/02 00:36:48;;;;;;;11.83;5.93;;;10.60;45.70;;;;;;5076000;28;20472;-67
2023/05/02 00:39:15;;;;;;;8.50;6.00;;;10.60;45.90;;;;;;5083826;28;20495;-68
2023/05/02 00:41:42;;;;;;;8.70;5.93;;;10.60;45.90;;;;;;5087872;28;20515;-68
2023/05/02 00:44:08;;;;;;;13.27;6.20;;;10.60;46.00;;;;;;5077618;28;20484;-68
2023/05/02 00:46:37;;;;;;;9.67;6.03;;;10.60;46.20;;;;;;5081540;28;20468;-67
2023/05/02 00:49:04;;;;;;;8.40;5.87;;;10.50;46.30;;;;;;5074367;28;20475;-67
2023/05/02 00:51:32;;;;;;;9.53;5.83;;;10.50;46.30;;;;;;5079601;28;20516;-67
2023/05/02 00:54:00;;;;;;;8.90;6.40;;;10.50;46.30;;;;;;5076087;28;20467;-67
2023/05/02 00:56:27;;;;;;;9.30;6.23;;;10.50;46.40;;;;;;5077326;28;20459;-68
2023/05/02 00:58:56;;;;;;;10.27;6.33;;;10.50;46.30;;;;;;5077594;28;21260;-67
2023/05/02 01:01:36;;;;;;;10.57;7.43;;;10.40;46.20;;;;;;5076031;28;20972;-68
2023/05/02 01:04:21;;;;;;;9.53;6.80;;;10.40;46.30;;;;;;5074099;28;20498;-67
2023/05/02 01:06:59;;;;;;;10.33;6.90;;;10.40;46.50;;;;;;5081433;28;20464;-67
2023/05/02 01:09:37;;;;;;;11.57;7.80;;;10.40;46.40;;;;;;5071552;28;20491;-67
2023/05/02 01:12:10;;;;;;;9.60;7.53;;;10.40;46.50;;;;;;5081623;28;20460;-67
2023/05/02 01:14:42;;;;;;;10.80;7.67;;;10.30;46.60;;;;;;5074402;28;20828;-68
2023/05/02 01:17:14;;;;;;;10.30;7.27;;;10.30;46.80;;;;;;5084268;28;20872;-68
2023/05/02 01:19:45;;;;;;;11.33;8.40;;;10.30;46.60;;;;;;5080763;28;20873;-67
2023/05/02 01:22:13;;;;;;;12.13;7.23;;;10.30;46.50;;;;;;5077683;28;20469;-68
2023/05/02 01:24:48;;;;;;;10.40;7.23;;;10.30;46.50;;;;;;5078361;28;20498;-68
2023/05/02 01:27:23;;;;;;;9.53;7.10;;;10.30;46.60;;;;;;5075848;28;20463;-67
2023/05/02 01:29:52;;;;;;;11.43;7.77;;;10.30;46.50;;;;;;5073024;28;20485;-68
2023/05/02 01:32:22;;;;;;;10.30;7.47;;;10.30;46.60;;;;;;5075574;28;20480;-67
2023/05/02 01:34:51;;;;;;;11.27;7.70;;;10.20;46.70;;;;;;5075681;28;20497;-67
2023/05/02 01:37:18;;;;;;;11.80;8.20;;;10.20;46.90;;;;;;5074242;28;20817;-67
2023/05/02 01:39:46;;;;;;;11.50;8.33;;;10.20;47.00;;;;;;5078709;28;20537;-67
2023/05/02 01:42:14;;;;;;;12.87;7.23;;;10.20;47.00;;;;;;5071694;28;20468;-67
2023/05/02 01:44:43;;;;;;;9.33;7.27;;;10.20;47.00;;;;;;5073274;28;20484;-68
2023/05/02 01:47:13;;;;;;;11.20;8.20;;;10.20;47.10;;;;;;5076419;28;20512;-67
2023/05/02 01:49:42;;;;;;;13.30;8.10;;;10.20;47.40;;;;;;5078670;28;20484;-68
2023/05/02 01:52:12;;;;;;;13.57;8.97;;;10.20;47.50;;;;;;5071613;28;21071;-68
2023/05/02 01:54:41;;;;;;;13.60;9.07;;;10.20;47.60;;;;;;5075838;28;20460;-68
2023/05/02 01:57:10;;;;;;;12.77;7.70;;;10.20;47.80;;;;;;5082470;28;20498;-67
2023/05/02 01:59:39;;;;;;;12.13;9.00;;;10.20;48.00;;;;;;5083301;28;20480;-66
2023/05/02 02:02:08;;;;;;;13.97;8.63;;;10.20;48.10;;;;;;5083145;28;21188;-67
2023/05/02 02:04:38;;;;;;;11.23;8.13;;;10.20;48.20;;;;;;5073905;28;20477;-66
2023/05/02 02:07:08;;;;;;;12.17;8.17;;;10.20;48.30;;;;;;5075936;28;20964;-67
2023/05/02 02:09:35;;;;;;;11.83;8.00;;;10.20;48.00;;;;;;5081735;28;20484;-67
2023/05/02 02:12:06;;;;;;;13.80;8.90;;;10.20;47.90;;;;;;5083411;28;20483;-66
2023/05/02 02:14:36;;;;;;;12.17;8.50;;;10.20;47.90;;;;;;5074849;28;20486;-67
2023/05/02 02:17:08;;;;;;;14.73;8.77;;;10.10;48.00;;;;;;5078782;28;20972;-67
2023/05/02 02:19:38;;;;;;;11.10;7.80;;;10.10;47.80;;;;;;5074381;28;20491;-66
2023/05/02 02:22:07;;;;;;;11.87;7.57;;;10.10;47.80;;;;;;5079660;28;20460;-67
2023/05/02 02:24:36;;;;;;;10.33;7.83;;;10.10;47.80;;;;;;5079127;28;20488;-67
2023/05/02 02:27:03;;;;;;;10.47;7.20;;;10.10;47.80;;;;;;5080131;28;20468;-68
2023/05/02 02:29:30;;;;;;;11.10;8.20;;;10.10;47.60;;;;;;5079878;28;20480;-67
2023/05/02 02:31:57;;;;;;;11.83;7.77;;;10.10;47.60;;;;;;5076506;28;20480;-67
2023/05/02 02:34:24;;;;;;;10.27;7.90;;;10.10;47.60;;;;;;5079606;28;20448;-67
2023/05/02 02:36:57;;;;;;;12.00;8.40;;;10.10;47.60;;;;;;5080042;28;20472;-67
2023/05/02 02:39:43;;;;;;;10.80;7.60;;;10.10;47.60;;;;;;5081825;28;20491;-67
2023/05/02 02:42:14;;;;;;;10.10;7.20;;;10.10;47.70;;;;;;5080437;28;20467;-67
2023/05/02 02:44:48;;;;;;;12.00;8.13;;;10.10;47.40;;;;;;5079767;28;20565;-67
2023/05/02 02:47:23;;;;;;;10.47;7.87;;;10.10;47.30;;;;;;5077324;28;20463;-67
2023/05/02 02:50:00;;;;;;;11.30;7.97;;;10.10;47.20;;;;;;5079824;28;20490;-67
2023/05/02 02:52:40;;;;;;;12.23;7.77;;;10.00;47.00;;;;;;5079595;28;20483;-67
2023/05/02 02:55:12;;;;;;;11.90;8.40;;;10.00;47.10;;;;;;5084982;28;20495;-66
2023/05/02 02:57:46;;;;;;;14.30;8.37;;;10.00;46.90;;;;;;5080431;28;20464;-67
2023/05/02 03:00:18;;;;;;;12.37;8.57;;;10.00;46.90;;;;;;5083626;22;21045;-67
2023/05/02 03:02:47;;;;;;;13.60;8.93;;;10.00;47.00;;;;;;5099196;28;20838;-67
2023/05/02 03:05:15;;;;;;;15.40;8.57;;;10.00;47.60;;;;;;5097665;27;20489;-67
2023/05/02 03:07:43;;;;;;;10.90;7.70;;;9.90;47.10;;;;;;5100759;28;20466;-67
2023/05/02 03:10:10;;;;;;;12.03;7.60;;;9.90;47.10;;;;;;5097837;28;20484;-67
2023/05/02 03:12:38;;;;;;;12.30;8.90;;;9.90;47.60;;;;;;5086595;28;20521;-67
2023/05/02 03:15:23;;;;;;;11.80;8.63;;;9.90;47.10;;;;;;5080806;28;20460;-67
2023/05/02 03:17:49;;;;;;;12.47;8.67;;;9.90;47.10;;;;;;5090984;22;20480;-66
2023/05/02 03:20:16;;;;;;;13.27;7.97;;;9.90;47.00;;;;;;5086993;28;20826;-67
2023/05/02 03:22:44;;;;;;;12.23;8.80;;;9.90;46.90;;;;;;5084815;28;20507;-65
2023/05/02 03:25:11;;;;;;;10.70;8.33;;;9.90;46.90;;;;;;5086157;28;20499;-66
2023/05/02 03:27:38;;;;;;;12.73;9.50;;;9.90;46.90;;;;;;5084801;28;20964;-66
2023/05/02 03:30:06;;;;;;;11.53;8.37;;;9.90;47.10;;;;;;5080892;28;20489;-65
2023/05/02 03:32:32;;;;;;;13.23;8.30;;;9.90;47.10;;;;;;5084409;28;20476;-65
2023/05/02 03:34:59;;;;;;;11.43;8.17;;;9.90;47.10;;;;;;5079353;28;20456;-65
2023/05/02 03:37:26;;;;;;;11.47;8.27;;;9.80;46.90;;;;;;5083474;28;20463;-65
2023/05/02 03:39:54;;;;;;;12.90;9.30;;;9.80;47.10;;;;;;5080571;28;20480;-65
2023/05/02 03:42:21;;;;;;;12.40;8.37;;;9.80;47.10;;;;;;5086032;28;20525;-65
2023/05/02 03:44:51;;;;;;;12.93;8.67;;;9.80;47.00;;;;;;5078752;28;20991;-65
2023/05/02 03:47:18;;;;;;;13.63;8.93;;;9.80;47.10;;;;;;5075602;28;20829;-65
2023/05/02 03:49:45;;;;;;;11.20;8.83;;;9.80;47.00;;;;;;5079700;28;20487;-65
2023/05/02 03:52:12;;;;;;;12.50;8.70;;;9.80;47.10;;;;;;5079783;28;20525;-65
2023/05/02 03:54:38;;;;;;;14.47;8.70;;;9.70;47.10;;;;;;5081592;28;20465;-65
2023/05/02 03:57:07;;;;;;;12.03;8.47;;;9.70;47.10;;;;;;5080799;28;20473;-65
2023/05/02 03:59:34;;;;;;;12.53;9.10;;;9.70;47.10;;;;;;5086612;28;20565;-65
2023/05/02 04:02:01;;;;;;;12.70;9.43;;;9.70;47.10;;;;;;5080190;28;20488;-66
2023/05/02 04:04:28;;;;;;;13.20;9.30;;;9.70;47.30;;;;;;5079085;28;20469;-65
2023/05/02 04:06:54;;;;;;;12.50;9.37;;;9.70;47.40;;;;;;5083823;28;20495;-66
2023/05/02 04:09:24;;;;;;;17.27;10.70;;;9.70;47.50;;;;;;5082166;28;20467;-66
2023/05/02 04:11:50;;;;;;;16.37;10.23;;;9.70;47.50;;;;;;5081498;28;20810;-65
2023/05/02 04:14:19;;;;;;;14.80;10.40;;;9.80;47.60;;;;;;5080449;28;20902;-65
2023/05/02 04:16:48;;;;;;;15.07;10.07;;;9.70;47.70;;;;;;5084719;28;20460;-66
2023/05/02 04:19:15;;;;;;;14.10;10.27;;;9.80;47.70;;;;;;5083397;28;20552;-65
2023/05/02 04:21:42;;;;;;;14.50;9.37;;;9.80;47.60;;;;;;5075141;28;20871;-65
2023/05/02 04:24:09;;;;;;;17.17;10.00;;;9.80;47.60;;;;;;5079976;28;20507;-65
2023/05/02 04:26:36;;;;;;;13.97;10.17;;;9.80;47.50;;;;;;5083458;28;20487;-65
2023/05/02 04:29:03;;;;;;;13.17;8.83;;;9.80;47.40;;;;;;5083123;28;20467;-65
2023/05/02 04:31:31;;;;;;;13.30;9.73;;;9.90;47.30;;;;;;5075621;28;20920;-65
2023/05/02 04:33:58;;;;;;;11.87;9.13;;;9.90;47.20;;;;;;5082996;28;20469;-66
2023/05/02 04:36:27;;;;;;;12.47;8.87;;;10.00;46.90;;;;;;5083019;28;20515;-65
2023/05/02 04:38:53;;;;;;;15.07;10.50;;;10.00;46.90;;;;;;5081825;28;20467;-65
2023/05/02 04:41:20;;;;;;;13.97;10.20;;;10.00;46.80;;;;;;5082778;28;20487;-65
2023/05/02 04:43:47;;;;;;;13.03;9.83;;;10.10;46.70;;;;;;5085680;28;21881;-65
2023/05/02 04:46:14;;;;;;;15.07;10.63;;;10.20;46.60;;;;;;5082211;28;20492;-65
2023/05/02 04:48:42;;;;;;;15.10;10.50;;;10.30;46.30;;;;;;5081485;28;20462;-65
2023/05/02 04:51:09;;;;;;;14.50;10.67;;;10.40;46.40;;;;;;5084855;28;20483;-65
2023/05/02 04:53:36;;;;;;;14.87;10.73;;;10.40;46.30;;;;;;5077038;28;20493;-65
2023/05/02 04:56:02;;;;;;;14.10;10.93;;;10.50;46.20;;;;;;5083165;28;20479;-66
2023/05/02 04:58:29;;;;;;;13.97;10.93;;;10.60;46.00;;;;;;5076768;28;20468;-66
2023/05/02 05:00:56;;;;;;;17.80;10.50;;;10.60;46.00;;;;;;5083202;28;20486;-65
2023/05/02 05:03:23;;;;;;;15.67;11.73;;;10.70;45.90;;;;;;5078998;28;20461;-66
2023/05/02 05:05:51;;;;;;;13.93;11.20;;;10.70;45.90;;;;;;5075426;28;20498;-66
2023/05/02 05:08:18;;;;;;;14.53;11.00;;;10.70;45.70;;;;;;5080439;28;20471;-66
2023/05/02 05:10:44;;;;;;;16.30;11.60;;;10.80;45.70;;;;;;5075448;28;20488;-66
2023/05/02 05:13:12;;;;;;;15.67;12.70;;;10.90;45.60;;;;;;5084358;28;20510;-66
2023/05/02 05:15:39;;;;;;;16.80;11.97;;;10.90;45.60;;;;;;5078149;28;20522;-66
2023/05/02 05:18:06;;;;;;;18.00;12.90;;;11.00;45.30;;;;;;5086953;28;20468;-66
2023/05/02 05:20:33;;;;;;;14.27;10.70;;;11.10;45.20;;;;;;5081957;28;20574;-66
2023/05/02 05:23:01;;;;;;;15.30;11.33;;;11.20;44.80;;;;;;5082670;28;20467;-66
2023/05/02 05:25:27;;;;;;;14.67;11.50;;;11.30;44.70;;;;;;5084718;28;20491;-66
2023/05/02 05:27:55;;;;;;;21.40;11.40;;;11.40;44.30;;;;;;5081097;28;20472;-66
2023/05/02 05:30:22;;;;;;;15.07;10.60;;;11.60;44.30;;;;;;5076705;28;20880;-66
2023/05/02 05:32:48;;;;;;;14.40;11.17;;;11.70;43.70;;;;;;5079287;28;21330;-66
2023/05/02 05:35:15;;;;;;;14.10;9.83;;;11.80;42.90;;;;;;5077732;28;20464;-66
2023/05/02 05:37:43;;;;;;;13.83;11.27;;;11.80;42.70;;;;;;5082022;28;20468;-66
2023/05/02 05:40:11;;;;;;;14.40;10.50;;;11.90;42.30;;;;;;5082752;28;20894;-66
2023/05/02 05:42:38;;;;;;;16.60;9.73;;;12.00;42.00;;;;;;5081788;28;20471;-66
2023/05/02 05:45:06;;;;;;;17.40;10.57;;;12.10;41.70;;;;;;5083173;28;20464;-65
2023/05/02 05:47:32;;;;;;;13.17;9.40;;;12.20;41.50;;;;;;5080175;28;20562;-65
2023/05/02 05:49:59;;;;;;;12.10;10.13;;;12.50;40.80;;;;;;5084948;28;21019;-66
2023/05/02 05:52:26;;;;;;;14.30;10.50;;;12.70;40.50;;;;;;5086777;28;20956;-66
2023/05/02 05:54:54;;;;;;;13.27;10.23;;;12.70;39.40;;;;;;5078237;28;20476;-66
2023/05/02 05:57:22;;;;;;;17.63;11.80;;;12.60;38.90;;;;;;5083512;28;20564;-66
2023/05/02 05:59:49;;;;;;;15.37;11.50;;;12.60;38.90;;;;;;5079624;28;20499;-66
2023/05/02 06:02:16;;;;;;;15.50;12.17;;;12.60;38.80;;;;;;5076475;28;20472;-66
2023/05/02 06:04:44;;;;;;;15.60;11.53;;;12.50;39.00;;;;;;5074245;28;20534;-66
2023/05/02 06:07:11;;;;;;;16.63;12.20;;;12.50;39.40;;;;;;5080717;28;20483;-66
2023/05/02 06:09:38;;;;;;;16.77;11.60;;;12.50;39.30;;;;;;5083723;28;20480;-67
2023/05/02 06:12:05;;;;;;;14.80;11.70;;;12.80;39.60;;;;;;5081821;28;20979;-66
2023/05/02 06:14:33;;;;;;;16.10;12.23;;;13.00;39.10;;;;;;5079520;28;20464;-66
2023/05/02 06:16:59;;;;;;;14.23;10.90;;;13.20;38.60;;;;;;5081575;28;20464;-66
2023/05/02 06:19:26;;;;;;;13.83;10.80;;;13.50;37.80;;;;;;5077295;28;20905;-66
2023/05/02 06:21:53;;;;;;;13.97;11.47;;;13.80;36.30;;;;;;5069747;28;20468;-67
2023/05/02 06:24:20;;;;;;;16.30;12.27;;;13.90;35.70;;;;;;5072058;28;20460;-66
2023/05/02 06:26:46;;;;;;;15.50;11.67;;;14.00;35.20;;;;;;5080397;28;20475;-67
2023/05/02 06:29:13;;;;;;;15.27;12.63;;;14.10;35.10;;;;;;5079751;28;20460;-66
2023/05/02 06:31:41;;;;;;;15.57;11.60;;;14.20;35.00;;;;;;5078307;28;20472;-66
2023/05/02 06:34:08;;;;;;;13.00;10.73;;;14.40;35.10;;;;;;5078395;28;20496;-66
2023/05/02 06:36:35;;;;;;;14.33;12.07;;;14.70;34.20;;;;;;5081201;28;20461;-66
2023/05/02 06:39:01;;;;;;;17.33;10.20;;;15.20;32.80;;;;;;5081303;28;20461;-67
2023/05/02 06:41:28;;;;;;;13.63;10.60;;;15.70;30.90;;;;;;5079687;28;20875;-67
2023/05/02 06:43:55;;;;;;;15.03;10.93;;;15.80;30.20;;;;;;5080341;28;20901;-67
2023/05/02 06:46:22;;;;;;;13.83;11.47;;;15.90;29.70;;;;;;5085433;28;20477;-67
2023/05/02 06:48:50;;;;;;;12.63;9.67;;;16.20;28.70;;;;;;5080630;28;20464;-66
2023/05/02 06:51:18;;;;;;;13.27;10.50;;;16.70;27.40;;;;;;5078274;28;20495;-66
2023/05/02 06:53:44;;;;;;;10.57;8.97;;;17.20;25.60;;;;;;5082080;28;20464;-66
2023/05/02 06:56:11;;;;;;;12.60;9.07;;;17.70;23.80;;;;;;5084354;28;20456;-67
2023/05/02 06:58:38;;;;;;;12.23;9.57;;;18.20;21.70;;;;;;5088176;28;20779;-67
2023/05/02 07:01:05;;;;;;;13.70;9.27;;;18.50;19.60;;;;;;5079833;28;20475;-67
2023/05/02 07:03:31;;;;;;;10.10;7.87;;;18.50;18.80;;;;;;5084410;28;20460;-67
2023/05/02 07:05:59;;;;;;;10.37;9.07;;;18.60;18.40;;;;;;5074323;28;20995;-67
2023/05/02 07:08:26;;;;;;;12.20;8.83;;;18.90;18.10;;;;;;5086080;28;20548;-67
2023/05/02 07:10:53;;;;;;;11.00;8.93;;;19.10;17.40;;;;;;5083449;28;20480;-66
2023/05/02 07:13:19;;;;;;;11.37;8.97;;;19.50;16.30;;;;;;5081830;28;20866;-66
2023/05/02 07:15:46;;;;;;;10.77;8.80;;;20.00;15.10;;;;;;5081335;28;20468;-67
2023/05/02 07:18:13;;;;;;;10.07;8.60;;;20.70;13.70;;;;;;5080147;28;20472;-67
2023/05/02 07:20:41;;;;;;;11.30;8.57;;;21.40;12.40;;;;;;5079697;28;21055;-67
2023/05/02 07:23:09;;;;;;;11.83;8.00;;;22.10;11.20;;;;;;5077209;28;20460;-66
2023/05/02 07:25:36;;;;;;;10.90;8.20;;;22.30;9.90;;;;;;5081293;28;20468;-67
2023/05/02 07:28:03;;;;;;;10.17;8.50;;;21.90;9.70;;;;;;5079031;28;20549;-67
2023/05/02 07:30:30;;;;;;;13.03;9.23;;;21.40;10.30;;;;;;5081537;28;20470;-67
2023/05/02 07:32:57;;;;;;;12.03;9.50;;;20.80;11.10;;;;;;5077306;28;20627;-67
2023/05/02 07:35:23;;;;;;;12.43;8.87;;;20.30;12.00;;;;;;5079171;28;20461;-67
2023/05/02 07:37:50;;;;;;;10.47;8.17;;;19.90;13.20;;;;;;5080547;28;20464;-66
2023/05/02 07:40:18;;;;;;;10.63;9.10;;;19.50;13.70;;;;;;5075578;28;20579;-66
2023/05/02 07:42:45;;;;;;;14.30;9.77;;;19.10;14.40;;;;;;5079754;28;20472;-68
2023/05/02 07:45:12;;;;;;;11.97;10.43;;;18.60;15.40;;;;;;5082849;28;20464;-68
2023/05/02 07:47:39;;;;;;;13.63;10.80;;;18.30;16.40;;;;;;5085780;28;20480;-67
2023/05/02 07:50:07;;;;;;;12.07;9.83;;;18.00;17.00;;;;;;5083565;28;20846;-67
2023/05/02 07:52:34;;;;;;;14.00;10.97;;;17.70;17.80;;;;;;5074369;28;20496;-68
2023/05/02 07:55:01;;;;;;;14.83;10.47;;;17.50;18.50;;;;;;5076218;28;20494;-68
2023/05/02 07:57:29;;;;;;;12.30;10.47;;;17.40;18.90;;;;;;5082294;28;20484;-66
2023/05/02 07:59:56;;;;;;;13.83;10.60;;;17.30;18.80;;;;;;5087682;28;20482;-65
2023/05/02 08:02:23;;;;;;;13.63;10.90;;;17.10;19.30;;;;;;5082333;28;20534;-66
2023/05/02 08:04:50;;;;;;;14.20;10.80;;;17.00;19.70;;;;;;5083895;28;20467;-65
2023/05/02 08:07:17;;;;;;;12.60;11.30;;;16.80;20.00;;;;;;5082345;28;20487;-67
2023/05/02 08:09:43;;;;;;;16.00;12.97;;;16.60;20.40;;;;;;5080538;28;20488;-67
2023/05/02 08:12:10;;;;;;;16.70;12.67;;;16.50;21.00;;;;;;5079192;28;20486;-67
2023/05/02 08:14:38;;;;;;;13.60;11.60;;;16.40;21.50;;;;;;5082491;28;20464;-67
2023/05/02 08:17:05;;;;;;;13.63;11.37;;;16.30;21.80;;;;;;5081589;28;20460;-66
2023/05/02 08:19:31;;;;;;;15.17;11.73;;;16.30;22.10;;;;;;5078362;28;20534;-67
2023/05/02 08:21:59;;;;;;;15.57;13.33;;;16.30;22.50;;;;;;5079973;28;20456;-67
2023/05/02 08:24:26;;;;;;;15.17;12.70;;;16.30;22.40;;;;;;5069766;28;20483;-66
2023/05/02 08:26:52;;;;;;;14.43;12.73;;;16.30;22.50;;;;;;5074848;28;20472;-66
2023/05/02 08:29:19;;;;;;;17.37;15.00;;;16.40;22.40;;;;;;5075392;28;20464;-67
2023/05/02 08:31:47;;;;;;;17.67;14.70;;;16.60;22.50;;;;;;5072261;28;20479;-67
2023/05/02 08:34:14;;;;;;;17.63;14.50;;;16.80;22.10;;;;;;5072691;28;20465;-67
2023/05/02 08:36:41;;;;;;;20.37;15.77;;;17.00;21.70;;;;;;5076855;28;20464;-67
2023/05/02 08:39:08;;;;;;;17.97;16.07;;;17.20;21.20;;;;;;5082516;28;20487;-67
2023/05/02 08:41:35;;;;;;;25.00;17.17;;;17.30;20.60;;;;;;5073271;28;20564;-67
2023/05/02 08:44:02;;;;;;;19.60;16.43;;;17.40;20.40;;;;;;5069929;28;20464;-67
2023/05/02 08:46:30;;;;;;;19.40;16.40;;;17.40;20.30;;;;;;5077659;28;20481;-68
2023/05/02 08:48:59;;;;;;;17.33;15.57;;;17.50;20.40;;;;;;5081045;28;20468;-68
2023/05/02 08:51:28;;;;;;;19.03;17.00;;;17.80;19.70;;;;;;5084117;28;21196;-68
2023/05/02 08:53:55;;;;;;;21.70;19.47;;;18.30;18.70;;;;;;5078702;28;21060;-68
2023/05/02 08:56:22;;;;;;;19.63;17.53;;;18.50;18.30;;;;;;5083811;28;20463;-68
2023/05/02 08:58:49;;;;;;;22.33;19.93;;;18.70;17.90;;;;;;5083274;28;20467;-68
2023/05/02 09:01:20;;;;;;;21.37;18.70;;;18.90;17.00;;;;;;5082174;28;20598;-68
2023/05/02 09:03:47;;;;;;;21.20;18.03;;;19.10;16.60;;;;;;5084758;28;20867;-68
2023/05/02 09:06:18;;;;;;;14.77;13.17;;;19.40;16.20;;;;;;5087641;28;20467;-68
2023/05/02 09:08:47;;;;;;;12.43;9.53;;;19.60;15.70;;;;;;5085018;28;20463;-68
2023/05/02 09:11:14;;;;;;;13.13;11.20;;;20.00;14.60;;;;;;5078135;28;20480;-68
2023/05/02 09:13:42;;;;;;;13.10;10.27;;;20.30;14.30;;;;;;5076717;28;20467;-68
2023/05/02 09:18:42;;;;;;;10.93;9.80;;;21.10;12.20;;;;;;5116780;22;20479;-70
2023/05/02 09:21:11;;;;;;;10.90;9.63;;;21.70;11.30;;;;;;5106286;28;20461;-70
2023/05/02 09:23:42;;;;;;;12.80;9.80;;;22.10;9.70;;;;;;5104116;28;20463;-71
2023/05/02 09:26:13;;;;;;;11.70;9.40;;;22.60;8.50;;;;;;5107821;28;20911;-71
2023/05/02 09:28:41;;;;;;;10.80;9.20;;;23.20;6.60;;;;;;5094989;28;20826;-70
2023/05/02 09:31:09;;;;;;;10.00;8.67;;;24.00;5.70;;;;;;5088458;28;21048;-70
2023/05/02 09:33:36;;;;;;;9.70;8.70;;;24.70;4.70;;;;;;5083989;28;20488;-68
2023/05/02 09:36:04;;;;;;;10.43;8.87;;;25.20;3.50;;;;;;5087214;28;20563;-69
2023/05/02 09:38:31;;;;;;;11.13;9.10;;;25.50;3.20;;;;;;5084798;28;20452;-69
2023/05/02 09:41:02;;;;;;;8.87;7.60;;;26.20;1.80;;;;;;5085267;28;21010;-69
2023/05/02 09:43:29;;;;;;;10.43;8.07;;;28.20;1.00;;;;;;5085410;28;20457;-69
2023/05/02 09:46:01;;;;;;;8.93;7.80;;;29.40;1.00;;;;;;5074108;28;20446;-70
2023/05/02 09:48:29;;;;;;;9.50;8.50;;;29.60;1.00;;;;;;5082276;28;20469;-69
2023/05/02 09:50:56;;;;;;;8.83;7.87;;;29.80;1.00;;;;;;5089482;28;20463;-69
2023/05/02 09:53:25;;;;;;;10.67;8.60;;;29.60;1.00;;;;;;5092682;28;20543;-69
2023/05/02 09:56:01;;;;;;;11.17;9.00;;;28.90;1.00;;;;;;5085705;28;20471;-70
2023/05/02 09:58:29;;;;;;;9.57;8.40;;;28.00;1.00;;;;;;5080807;28;20449;-70
2023/05/02 10:00:57;;;;;;;9.67;8.07;;;27.00;1.00;;;;;;5079178;28;20572;-71
2023/05/02 10:03:25;;;;;;;10.20;8.77;;;26.80;1.00;;;;;;5083374;28;20456;-72
2023/05/02 10:05:53;;;;;;;9.93;8.60;;;28.20;1.00;;;;;;5078117;28;20984;-74
2023/05/02 10:08:21;;;;;;;10.53;8.67;;;29.90;1.00;;;;;;5082325;28;20484;-74
2023/05/02 10:10:52;;;;;;;8.60;7.70;;;31.30;1.00;;;;;;5079361;28;20482;-75
2023/05/02 10:13:23;;;;;;;10.23;7.33;;;31.20;1.00;;;;;;5078581;28;20456;-75
2023/05/02 10:15:56;;;;;;;10.43;8.73;;;30.60;1.00;;;;;;5075251;28;20513;-75
2023/05/02 10:18:28;;;;;;;9.67;8.60;;;29.90;1.00;;;;;;5077831;28;21002;-74
2023/05/02 10:21:00;;;;;;;8.83;7.90;;;29.40;1.00;;;;;;5082519;28;20464;-74
2023/05/02 10:23:28;;;;;;;12.07;8.70;;;28.80;1.00;;;;;;5073855;28;20862;-75
2023/05/02 10:25:55;;;;;;;11.50;7.80;;;27.90;1.00;;;;;;5072245;28;21337;-74
2023/05/02 10:28:24;;;;;;;13.90;7.70;;;27.50;1.00;;;;;;5075842;28;20495;-74
2023/05/02 10:30:52;;;;;;;11.73;8.20;;;27.30;1.00;;;;;;5077616;28;20465;-74
2023/05/02 10:33:21;;;;;;;9.20;8.03;;;27.10;1.00;;;;;;5080869;28;20455;-75
2023/05/02 10:35:48;;;;;;;10.13;7.33;;;26.90;1.00;;;;;;5074270;28;20465;-74
2023/05/02 10:38:18;;;;;;;9.10;7.53;;;26.60;1.00;;;;;;5081903;28;20472;-74
2023/05/02 10:40:55;;;;;;;9.07;7.57;;;26.30;1.00;;;;;;5082209;28;20456;-74
2023/05/02 10:43:25;;;;;;;9.73;7.60;;;25.90;1.00;;;;;;5085453;28;20522;-75
2023/05/02 10:45:53;;;;;;;11.00;8.43;;;25.60;1.00;;;;;;5080677;28;20460;-74
2023/05/02 10:48:22;;;;;;;9.40;8.30;;;25.40;1.00;;;;;;5078525;28;20496;-74
2023/05/02 10:50:50;;;;;;;9.87;8.60;;;25.10;1.00;;;;;;5082763;28;20460;-75
2023/05/02 10:53:29;;;;;;;11.43;8.53;;;24.70;1.00;;;;;;5076185;28;20465;-75
2023/05/02 10:56:12;;;;;;;10.50;9.40;;;24.20;1.50;;;;;;5076171;28;20463;-74
2023/05/02 10:58:41;;;;;;;9.03;8.03;;;23.80;2.60;;;;;;5082725;28;20459;-74
2023/05/02 11:01:35;;;;;;;11.30;8.83;;;23.50;2.50;;;;;;5081595;28;20472;-74
2023/05/02 11:04:03;;;;;;;11.40;9.10;;;23.20;4.50;;;;;;5081019;28;20473;-74
2023/05/02 11:06:32;;;;;;;11.77;9.60;;;23.20;4.90;;;;;;5078363;28;20475;-74
2023/05/02 11:09:30;;;;;;;10.00;8.37;;;23.10;4.90;;;;;;5076589;28;20993;-74
2023/05/02 11:11:57;;;;;;;10.37;8.87;;;23.10;4.70;;;;;;5082201;28;20461;-74
2023/05/02 11:14:46;;;;;;;11.27;9.10;;;23.10;5.30;;;;;;5082102;28;21248;-74
2023/05/02 11:17:13;;;;;;;10.37;8.83;;;23.20;6.50;;;;;;5074912;28;20492;-76
2023/05/02 11:20:28;;;;;;;9.90;8.77;;;23.30;6.80;;;;;;5078230;28;20460;-74
2023/05/02 11:22:58;;;;;;;11.03;8.00;;;23.20;5.20;;;;;;5080028;28;20456;-74
2023/05/02 11:25:35;;;;;;;11.40;8.80;;;23.10;5.50;;;;;;5078330;28;20483;-74
2023/05/02 11:28:03;;;;;;;11.40;8.70;;;23.10;5.80;;;;;;5071799;28;20488;-74
2023/05/02 11:30:47;;;;;;;9.47;8.43;;;23.20;6.20;;;;;;5078947;28;20960;-74
2023/05/02 11:33:18;;;;;;;9.47;7.90;;;23.20;4.10;;;;;;5082188;28;20895;-74
2023/05/02 11:35:47;;;;;;;15.57;9.50;;;23.00;3.90;;;;;;5084722;28;20920;-74
2023/05/02 11:38:16;;;;;;;9.93;8.17;;;23.00;5.60;;;;;;5070821;28;20497;-74
2023/05/02 11:40:57;;;;;;;10.17;8.90;;;22.90;5.80;;;;;;5084718;28;20461;-74
2023/05/02 11:43:26;;;;;;;10.40;8.57;;;23.00;6.10;;;;;;5081898;28;20844;-75
2023/05/02 11:45:55;;;;;;;11.73;9.10;;;22.80;5.40;;;;;;5076535;28;20547;-74
2023/05/02 11:48:26;;;;;;;11.67;9.83;;;22.60;4.50;;;;;;5081692;28;20545;-74
2023/05/02 11:50:55;;;;;;;10.40;9.30;;;22.30;5.90;;;;;;5076993;28;20832;-73
2023/05/02 11:53:23;;;;;;;10.60;8.27;;;22.10;5.50;;;;;;5079227;28;20460;-74
2023/05/02 11:55:51;;;;;;;9.87;8.87;;;21.90;5.60;;;;;;5077275;28;20465;-74
2023/05/02 11:58:19;;;;;;;12.60;9.07;;;21.70;6.30;;;;;;5078446;28;20849;-74
2023/05/02 12:00:47;;;;;;;11.43;9.13;;;21.60;6.60;;;;;;5079357;28;20473;-75
2023/05/02 12:03:29;;;;;;;10.30;8.37;;;21.50;6.10;;;;;;5080086;28;20452;-74
2023/05/02 12:05:56;;;;;;;9.20;7.90;;;21.50;7.60;;;;;;5074418;28;20866;-73
2023/05/02 12:08:25;;;;;;;8.93;7.03;;;21.50;8.30;;;;;;5080636;28;20488;-74
2023/05/02 12:10:54;;;;;;;17.37;9.70;;;21.40;7.00;;;;;;5083392;28;20835;-74
2023/05/02 12:13:22;;;;;;;14.00;9.60;;;21.40;6.90;;;;;;5075129;28;20469;-74
2023/05/02 12:15:52;;;;;;;11.43;8.43;;;21.50;7.20;;;;;;5081460;28;20491;-74
2023/05/02 12:18:22;;;;;;;10.07;8.97;;;21.50;6.70;;;;;;5067435;28;20485;-73
2023/05/02 12:20:51;;;;;;;9.90;8.57;;;21.50;7.00;;;;;;5077099;28;20464;-74
2023/05/02 12:23:20;;;;;;;11.60;8.90;;;21.50;7.60;;;;;;5084556;28;20456;-74
2023/05/02 12:25:47;;;;;;;11.50;9.37;;;21.60;7.50;;;;;;5079930;28;20456;-74
2023/05/02 12:28:14;;;;;;;10.43;8.53;;;21.60;7.70;;;;;;5075113;28;20561;-74
2023/05/02 12:30:41;;;;;;;12.10;8.30;;;21.60;7.50;;;;;;5080182;28;20548;-74
2023/05/02 12:33:08;;;;;;;10.17;9.07;;;21.40;7.20;;;;;;5081311;28;20842;-75
2023/05/02 12:35:35;;;;;;;15.20;10.90;;;21.30;7.60;;;;;;5069851;28;20460;-74
2023/05/02 12:38:11;;;;;;;9.50;8.50;;;21.10;8.10;;;;;;5079903;28;21064;-74
2023/05/02 12:40:39;;;;;;;9.40;7.00;;;20.90;8.80;;;;;;5074659;28;20509;-73
2023/05/02 12:43:09;;;;;;;7.43;5.47;;;20.80;7.80;;;;;;5086955;28;20460;-73
2023/05/02 12:45:38;;;;;;;7.90;5.40;;;20.50;8.00;;;;;;5080645;28;20461;-74
2023/05/02 12:48:18;;;;;;;9.10;7.50;;;20.30;8.20;;;;;;5085843;28;20496;-69
2023/05/02 12:50:46;;;;;;;8.77;6.30;;;20.10;9.10;;;;;;5080460;28;20461;-69
2023/05/02 12:53:14;;;;;;;7.80;5.37;;;19.90;9.60;;;;;;5083954;28;20463;-69